13:39
Airports
History
Links
Donate
Help keep this website running!
PayPal
Bitcoin
This page is community maintained. The information is intended for PC simulator navigation or reference.
Always use approved charts for navigation.
56W
Blevins - Private
Blevins - Private (56W)
Kernersville, North Carolina, United States (27284)
4
Lat/Lng:36° 5' 53.49" N / 80° 8' 44.16" W
36.098193 / -80.145601
Elevation:975'ft / 297mMSL
ID / ICAO:56W
Runways:1
Longest:36-18
Grass 418m / 1,373ft
Nearby Weather12:54 GMT 2018-01-19
Nearby weather at KINT, Smith Reynolds located 4.9 nautical miles from 56W
Altimeter: 30.22
Visibility: 10.0 statute miles
Wind: 0 knots (from 000°)
Temp: -3°c / 27°f
Humidity: 53.9%

METAR: KINT 191254Z 00000KT 10SM CLR M03/M11 A3022 RMK AO2 SLP241 T10331106

(Powered by phpweather)
Nearby VORs <50NM
Nearby NDBs
Runway 36 / 18
Dimensions:418.4 x 12.2m 1373' x 40'ft
Surface:Grass
Runway 36 [A]Runway 18 [B]
Heading:354°TH 174°TH
Lat:
Lng:
36° 5' 46.86"N
80° 8' 43.3"W
36° 6' 0.12"N
80° 8' 45.02"W
User Notes and Comments
36° 5' 53.49" N / 80° 8' 44.16" W
Distance To
Airport ID:
Nearby Airports
(R) Robertson Field 3.4 NM
NC63 NW 319°
(C) Smith Reynolds 4.9 NM
KINT ( WX ) WNW 299°
(C) Piedmont Triad Intl 11.4 NM
KGSO ( WX ) E 88°
(U) Meadow Brook Field 14.0 NM
N63 N 359°
(R) Darr Field 15.8 NM
NC03 SE 145°
4 Brower Field 15.9 NM
NC60 SSE 156°
(R) Meylor Field 16.0 NM
9NC9 ENE 61°
VFR Chart
Flight Planning at SkyVector.com